Aérodrome :
LOGIN :

S'inscrire | Disclaimer

   EN    FR    IT 

 










Légende :    VFR   VFR Marginal   IFR   IFR Intensif   IFR Très Intensif
Visi : 
Plafond : 
>= 8 km
>= 3000ft
5 à 8 km
1000 à 3000 ft
1500m à 5 km
500 à 1000 ft
800 à 1500m
200 à 500 ft
< 800m
< 200 ft
Symboles :   Orages  Brouillard  Fortes neiges  Fortes précipitations  Vent > 20 kt
SIGMETs :   Divers  Orages  Givrage  Turbulence  Onde Orograph.  Cendres Volcan.







- Altitude de l'aérodrome : 348 ft
- Code IATA : LDV
- Voir les cartes d'approche


LFRJ - Landivisiau

DERNIER METAR :
  • 230400Z AUTO 17002KT 5000 BR VV/// 14/14 Q1019

METARs EXPIRÉS :
  • 230330Z AUTO 23002KT 7000 1700 VV/// 14/14 Q1019
  • 230300Z AUTO 00000KT 8000 VV/// 15/14 Q1019
  • 230230Z AUTO 22002KT 6000 1300 R26/1200U R08/1200D FEW001 SCT110 BKN130 15/15 Q1019
  • 230200Z AUTO 20002KT 6000 NSC 15/14 Q1019
  • 230130Z AUTO 20003KT 7000 R08/1200D VV/// 15/15 Q1019

Prévision TAF périmée.
Pas de NOTAMs connus pour ce terrain.



MET'MAP, la Météo Aéronautique d'un coup d'oeil ! - Copyright ORBIFLY Décembre 2007 - Disclaimer

ORBIFLY MET'MAP TEAM :

Programmation & Développement : Alexandra Zaïnal
Conception & Développement : Baudouin d'Aumeries
Co-Programmation & Développement : Marc-Olivier Méhu
Soutien technique & logistique : Manuel Goepfert

Contact : metmap@orbifly.com




SOURCES & CREDITS :

   NOAA